Time;durP1;ratioP1;P1;durP2;ratioP2;P2;SDS_P1;SDS_P2;PMS_P1;PMS_P2;Temp;Humidity;BMP_temperature;BMP_pressure;BME280_temperature;BME280_humidity;BME280_pressure;Samples;Min_cycle;Max_cycle;Signal;HPM_P1;HPM_P2
2023/07/29 00:00:46;;;;;;;4.85;1.48;;;17.70;99.90;;;;;;5006022;28;20033;-84
2023/07/29 00:03:12;;;;;;;2.45;1.48;;;17.70;99.90;;;;;;5022532;28;20068;-85
2023/07/29 00:05:39;;;;;;;1.95;1.30;;;17.60;99.90;;;;;;5037454;28;20033;-81
2023/07/29 00:08:05;;;;;;;2.40;1.40;;;17.60;99.90;;;;;;5022726;28;20473;-86
2023/07/29 00:10:32;;;;;;;2.42;1.50;;;17.70;99.90;;;;;;5039339;28;20505;-85
2023/07/29 00:12:58;;;;;;;2.85;1.40;;;17.70;99.90;;;;;;5039920;28;20033;-85
2023/07/29 00:15:24;;;;;;;2.20;1.27;;;17.70;99.90;;;;;;5021926;28;20036;-84
2023/07/29 00:17:50;;;;;;;2.50;1.45;;;17.60;99.90;;;;;;5036132;28;20029;-85
2023/07/29 00:20:16;;;;;;;2.38;1.50;;;17.70;99.90;;;;;;5023353;28;20025;-86
2023/07/29 00:22:41;;;;;;;2.30;1.65;;;17.60;99.90;;;;;;5020784;28;20432;-85
2023/07/29 00:25:07;;;;;;;2.40;1.75;;;17.50;99.90;;;;;;5027311;28;20067;-86
2023/07/29 00:27:33;;;;;;;2.40;1.40;;;17.50;99.90;;;;;;5028322;28;20029;-84
2023/07/29 00:29:59;;;;;;;2.20;1.42;;;17.50;99.90;;;;;;5031615;28;20060;-86
2023/07/29 00:32:27;;;;;;;2.35;1.40;;;17.50;99.90;;;;;;5027753;28;20026;-80
2023/07/29 00:34:52;;;;;;;2.42;1.58;;;17.50;99.90;;;;;;5026988;28;20053;-85
2023/07/29 00:37:18;;;;;;;1.98;1.45;;;17.50;99.90;;;;;;5035287;28;20458;-86
2023/07/29 00:39:45;;;;;;;3.03;1.60;;;17.50;99.90;;;;;;5031348;28;20386;-86
2023/07/29 00:42:11;;;;;;;2.75;1.40;;;17.50;99.90;;;;;;5035778;28;20036;-82
2023/07/29 00:44:36;;;;;;;2.92;1.52;;;17.40;99.90;;;;;;5044789;28;20419;-85
2023/07/29 00:47:04;;;;;;;2.38;1.35;;;17.40;99.90;;;;;;5028733;28;20024;-87
2023/07/29 00:49:31;;;;;;;2.47;1.70;;;17.40;99.90;;;;;;5035289;28;20040;-82
2023/07/29 00:51:57;;;;;;;3.75;1.60;;;17.30;99.90;;;;;;5029771;28;20033;-86
2023/07/29 00:54:24;;;;;;;2.40;1.60;;;17.30;99.90;;;;;;5030319;28;20083;-86
2023/07/29 00:56:50;;;;;;;2.25;1.42;;;17.20;99.90;;;;;;5009668;28;20022;-86
2023/07/29 00:59:16;;;;;;;2.78;1.60;;;17.20;99.90;;;;;;5019671;28;20397;-85
2023/07/29 01:01:42;;;;;;;2.10;1.35;;;17.20;99.90;;;;;;5021413;28;20029;-86
2023/07/29 01:04:08;;;;;;;1.95;1.20;;;17.20;99.90;;;;;;5020215;28;20125;-80
2023/07/29 01:07:05;;;;;;;2.78;1.38;;;17.20;99.90;;;;;;5005725;28;20566;-86
2023/07/29 01:10:00;;;;;;;2.28;1.63;;;17.20;99.90;;;;;;5004576;28;20037;-85
2023/07/29 01:12:54;;;;;;;2.38;1.67;;;17.20;99.90;;;;;;5007742;28;20044;-85
2023/07/29 01:15:32;;;;;;;2.17;1.70;;;17.20;99.90;;;;;;5002470;28;20027;-84
2023/07/29 01:18:23;;;;;;;1.85;1.17;;;17.20;99.90;;;;;;5024266;28;20038;-86
2023/07/29 01:20:52;;;;;;;1.85;1.40;;;17.10;99.90;;;;;;5004699;28;20037;-83
2023/07/29 01:23:25;;;;;;;;;;;17.10;99.90;;;;;;5007276;28;20382;-86
2023/07/29 01:25:51;;;;;;;2.22;1.17;;;17.10;99.90;;;;;;5002532;28;19996;-86
2023/07/29 01:28:17;;;;;;;1.85;1.42;;;17.10;99.90;;;;;;5007608;28;20105;-81
2023/07/29 01:30:44;;;;;;;1.65;1.02;;;17.10;99.90;;;;;;5016777;28;20030;-82
2023/07/29 01:33:15;;;;;;;2.05;1.58;;;17.10;99.90;;;;;;5007109;28;20374;-85
2023/07/29 01:36:08;;;;;;;3.05;1.98;;;17.10;99.90;;;;;;5007880;28;20436;-82
2023/07/29 01:38:37;;;;;;;3.30;1.75;;;17.10;99.90;;;;;;5007439;28;20190;-86
2023/07/29 01:41:05;;;;;;;2.58;2.00;;;17.10;99.90;;;;;;5004145;28;20088;-86
2023/07/29 01:43:32;;;;;;;2.58;1.25;;;17.00;99.90;;;;;;5020640;28;20516;-86
2023/07/29 01:45:58;;;;;;;2.70;1.98;;;17.00;99.90;;;;;;5006255;28;20501;-86
2023/07/29 01:48:24;;;;;;;2.35;1.60;;;17.00;99.90;;;;;;5010088;28;20042;-85
2023/07/29 01:50:50;;;;;;;2.50;2.05;;;17.00;99.90;;;;;;5005457;28;20037;-86
2023/07/29 01:53:16;;;;;;;2.60;2.05;;;16.90;99.90;;;;;;5007522;28;20037;-86
2023/07/29 01:55:44;;;;;;;2.33;1.77;;;16.90;99.90;;;;;;5005708;28;20121;-85
2023/07/29 01:58:11;;;;;;;3.03;1.70;;;16.80;99.90;;;;;;5006309;28;20113;-86
2023/07/29 02:00:37;;;;;;;4.15;2.00;;;16.80;99.90;;;;;;4991650;28;20034;-83
2023/07/29 02:03:03;;;;;;;2.10;1.67;;;16.80;99.90;;;;;;5006017;28;20057;-86
2023/07/29 02:05:29;;;;;;;3.53;2.08;;;16.80;99.90;;;;;;5024445;28;20029;-86
2023/07/29 02:07:55;;;;;;;2.20;1.60;;;16.80;99.90;;;;;;5006952;28;20030;-84
2023/07/29 02:10:20;;;;;;;2.75;2.28;;;16.80;99.90;;;;;;5003928;28;20037;-85
2023/07/29 02:12:46;;;;;;;2.40;1.77;;;16.90;99.90;;;;;;5004975;28;20023;-82
2023/07/29 02:15:12;;;;;;;2.30;1.77;;;16.90;99.90;;;;;;5007453;28;20030;-85
2023/07/29 02:17:39;;;;;;;2.58;1.40;;;16.90;99.90;;;;;;4992201;28;20027;-82
2023/07/29 02:20:06;;;;;;;1.90;1.50;;;16.90;99.90;;;;;;5002450;28;20542;-81
2023/07/29 02:22:31;;;;;;;2.15;1.58;;;17.00;99.90;;;;;;5006631;28;20025;-84
2023/07/29 02:24:57;;;;;;;2.38;1.85;;;17.00;99.90;;;;;;5003350;28;20038;-79
2023/07/29 02:27:26;;;;;;;2.45;1.73;;;17.00;99.90;;;;;;4992891;28;20025;-84
2023/07/29 02:29:52;;;;;;;2.58;1.90;;;17.00;99.90;;;;;;5005252;28;20053;-81
2023/07/29 02:32:18;;;;;;;2.47;1.60;;;17.00;99.90;;;;;;4989319;28;20026;-84
2023/07/29 02:34:45;;;;;;;2.17;1.58;;;17.10;99.90;;;;;;5006487;28;20062;-84
2023/07/29 02:37:10;;;;;;;2.50;1.95;;;17.10;99.90;;;;;;5003643;28;20084;-84
2023/07/29 02:39:37;;;;;;;2.53;1.55;;;17.20;99.90;;;;;;5002887;28;20476;-84
2023/07/29 02:42:03;;;;;;;2.60;1.75;;;17.20;99.90;;;;;;4988451;28;20018;-84
2023/07/29 02:44:29;;;;;;;2.38;1.48;;;17.20;99.90;;;;;;4989863;28;20035;-84
2023/07/29 02:46:56;;;;;;;3.10;1.83;;;17.20;99.90;;;;;;4991791;28;20026;-84
2023/07/29 02:49:23;;;;;;;3.20;1.67;;;17.20;99.90;;;;;;4987984;28;20157;-85
2023/07/29 02:51:48;;;;;;;2.60;1.85;;;17.20;99.90;;;;;;4989016;28;20088;-84
2023/07/29 02:54:14;;;;;;;2.15;1.42;;;17.20;99.90;;;;;;4992582;28;20472;-84
2023/07/29 02:56:40;;;;;;;2.25;1.58;;;17.20;99.90;;;;;;4991197;28;20529;-85
2023/07/29 02:59:07;;;;;;;2.22;1.70;;;17.20;99.90;;;;;;5004381;28;20038;-84
2023/07/29 03:01:34;;;;;;;2.47;1.77;;;17.20;99.90;;;;;;5002600;28;20026;-84
2023/07/29 03:04:00;;;;;;;2.47;1.90;;;17.20;99.90;;;;;;5005501;28;20046;-85
2023/07/29 03:06:25;;;;;;;2.30;1.75;;;17.10;99.90;;;;;;5004076;28;20123;-82
2023/07/29 03:08:51;;;;;;;2.75;2.05;;;17.20;99.90;;;;;;4986944;28;20022;-84
2023/07/29 03:11:17;;;;;;;2.25;1.80;;;17.20;99.90;;;;;;5004294;28;20053;-83
2023/07/29 03:13:43;;;;;;;2.40;1.90;;;17.20;99.90;;;;;;5011451;28;20118;-85
2023/07/29 03:16:14;;;;;;;2.78;1.60;;;17.30;99.90;;;;;;5020047;28;20061;-85
2023/07/29 03:18:44;;;;;;;2.63;1.85;;;17.30;99.90;;;;;;4988857;28;20517;-85
2023/07/29 03:21:11;;;;;;;2.95;2.00;;;17.30;99.90;;;;;;5007918;28;20030;-85
2023/07/29 03:23:37;;;;;;;4.63;2.17;;;17.30;99.90;;;;;;5004378;28;20113;-79
2023/07/29 03:26:10;;;;;;;2.45;1.75;;;17.30;99.90;;;;;;5020697;28;20041;-86
2023/07/29 03:28:41;;;;;;;3.15;1.83;;;17.30;99.90;;;;;;5003980;28;20060;-86
2023/07/29 03:31:07;;;;;;;2.90;1.70;;;17.40;99.90;;;;;;5007076;28;20030;-84
2023/07/29 03:33:33;;;;;;;3.08;1.65;;;17.40;99.90;;;;;;5007402;28;20033;-84
2023/07/29 03:35:59;;;;;;;3.25;1.52;;;17.40;99.90;;;;;;5005543;28;20065;-81
2023/07/29 03:38:25;;;;;;;2.67;1.90;;;17.40;99.90;;;;;;5007930;28;20041;-86
2023/07/29 03:40:51;;;;;;;2.28;1.63;;;17.40;99.90;;;;;;5002267;28;20475;-85
2023/07/29 03:43:17;;;;;;;2.65;1.70;;;17.40;99.90;;;;;;5003015;28;20030;-86
2023/07/29 03:45:42;;;;;;;2.80;1.45;;;17.40;99.90;;;;;;4987998;28;20045;-85
2023/07/29 03:48:08;;;;;;;2.05;1.27;;;17.40;99.90;;;;;;5006434;28;20383;-80
2023/07/29 03:50:35;;;;;;;2.08;1.20;;;17.30;99.90;;;;;;4989951;28;20033;-86
2023/07/29 03:53:02;;;;;;;2.33;1.23;;;17.30;99.90;;;;;;4990888;28;20026;-86
2023/07/29 03:55:29;;;;;;;2.03;1.10;;;17.30;99.90;;;;;;5006575;28;20025;-85
2023/07/29 03:57:56;;;;;;;2.78;1.52;;;17.30;99.90;;;;;;4985133;28;20025;-83
2023/07/29 04:00:22;;;;;;;2.00;1.10;;;17.30;99.90;;;;;;5021108;28;20018;-85
2023/07/29 04:02:49;;;;;;;2.25;1.02;;;17.30;99.90;;;;;;4987773;28;20042;-81
2023/07/29 04:05:16;;;;;;;1.70;0.90;;;17.30;99.90;;;;;;5003576;28;20053;-86
2023/07/29 04:07:41;;;;;;;2.28;0.82;;;17.30;99.90;;;;;;5005175;28;20471;-85
2023/07/29 04:10:08;;;;;;;2.25;1.08;;;17.30;99.90;;;;;;4990777;28;20029;-86
2023/07/29 04:12:34;;;;;;;1.50;0.90;;;17.20;99.90;;;;;;4985591;28;20030;-85
2023/07/29 04:14:59;;;;;;;2.03;0.77;;;17.20;99.90;;;;;;5003248;28;20465;-84
2023/07/29 04:17:25;;;;;;;1.70;0.70;;;17.20;99.90;;;;;;5003683;28;20030;-82
2023/07/29 04:19:51;;;;;;;2.47;0.88;;;17.20;99.90;;;;;;5005297;28;20048;-86
2023/07/29 04:22:18;;;;;;;2.03;0.70;;;17.20;99.90;;;;;;4990267;28;20486;-85
2023/07/29 04:24:44;;;;;;;3.58;0.90;;;17.20;99.90;;;;;;5005265;28;20040;-83
2023/07/29 04:27:09;;;;;;;1.63;0.68;;;17.20;99.90;;;;;;5003350;28;20390;-85
2023/07/29 04:29:36;;;;;;;2.05;0.90;;;17.10;99.90;;;;;;5004159;28;20561;-85
2023/07/29 04:32:05;;;;;;;2.47;0.70;;;17.10;99.90;;;;;;5005782;28;20096;-86
2023/07/29 04:34:31;;;;;;;1.40;0.70;;;17.10;99.90;;;;;;5004182;28;20060;-83
2023/07/29 04:36:57;;;;;;;1.60;0.63;;;17.10;99.90;;;;;;5017569;28;20498;-79
2023/07/29 04:39:23;;;;;;;1.35;0.65;;;17.10;99.90;;;;;;4989055;28;20034;-84
2023/07/29 04:41:49;;;;;;;1.80;0.70;;;17.10;99.90;;;;;;4985241;28;20018;-83
2023/07/29 04:44:15;;;;;;;1.60;0.68;;;17.10;99.90;;;;;;5002748;28;20492;-83
2023/07/29 04:46:41;;;;;;;1.60;0.50;;;17.10;99.90;;;;;;4989304;28;20045;-80
2023/07/29 04:49:07;;;;;;;1.52;0.60;;;17.10;99.90;;;;;;5018379;28;20149;-86
2023/07/29 04:51:32;;;;;;;2.10;0.85;;;17.10;99.90;;;;;;5003362;28;20412;-78
2023/07/29 04:53:58;;;;;;;2.20;0.85;;;17.10;99.90;;;;;;5005156;28;20156;-79
2023/07/29 04:56:25;;;;;;;1.65;0.65;;;17.10;99.90;;;;;;5002138;28;20103;-79
2023/07/29 04:58:51;;;;;;;1.50;0.80;;;17.10;99.90;;;;;;4986546;28;20026;-84
2023/07/29 05:01:16;;;;;;;2.33;0.70;;;17.10;99.90;;;;;;4985131;28;20030;-79
2023/07/29 05:03:42;;;;;;;1.80;0.70;;;17.10;99.90;;;;;;4988455;28;20173;-84
2023/07/29 05:06:08;;;;;;;3.00;0.80;;;17.20;99.90;;;;;;4989242;28;20029;-83
2023/07/29 05:08:34;;;;;;;1.50;0.80;;;17.10;99.90;;;;;;5002961;28;20029;-83
2023/07/29 05:11:00;;;;;;;1.10;0.50;;;17.10;99.90;;;;;;5005838;28;20022;-84
2023/07/29 05:13:26;;;;;;;1.45;0.50;;;17.00;99.90;;;;;;5006883;28;20525;-79
2023/07/29 05:15:51;;;;;;;1.98;0.60;;;17.10;99.90;;;;;;5008130;28;20463;-82
2023/07/29 05:18:18;;;;;;;1.98;0.80;;;17.00;99.90;;;;;;5006045;28;20112;-81
2023/07/29 05:20:44;;;;;;;1.25;0.43;;;16.90;99.90;;;;;;5004557;28;20149;-82
2023/07/29 05:23:10;;;;;;;2.10;0.50;;;17.10;99.90;;;;;;5011432;28;20478;-84
2023/07/29 05:25:36;;;;;;;1.73;0.70;;;17.20;99.90;;;;;;4991573;28;20038;-86
2023/07/29 05:28:02;;;;;;;1.25;0.50;;;17.10;99.90;;;;;;5008940;28;20066;-87
2023/07/29 05:30:30;;;;;;;1.50;0.50;;;17.20;99.90;;;;;;5010098;28;20037;-86
2023/07/29 05:33:00;;;;;;;2.67;0.50;;;17.10;99.90;;;;;;5005078;28;20026;-85
2023/07/29 05:35:26;;;;;;;1.27;0.63;;;17.20;99.90;;;;;;5004740;28;20084;-85
2023/07/29 05:37:52;;;;;;;1.63;0.60;;;17.20;99.90;;;;;;5008256;28;20409;-84
2023/07/29 05:40:17;;;;;;;1.75;0.68;;;17.30;99.90;;;;;;4989723;28;20029;-80
2023/07/29 05:42:44;;;;;;;2.42;1.20;;;17.30;99.90;;;;;;4992155;28;20038;-83
2023/07/29 05:45:11;;;;;;;2.28;0.93;;;17.20;99.90;;;;;;4992058;28;20125;-84
2023/07/29 05:47:37;;;;;;;3.78;1.23;;;17.20;99.90;;;;;;5006336;28;20014;-85
2023/07/29 05:50:04;;;;;;;3.72;1.17;;;17.20;99.90;;;;;;5007838;28;20029;-79
2023/07/29 05:52:31;;;;;;;2.70;0.90;;;17.20;99.90;;;;;;5006892;28;20564;-85
2023/07/29 05:54:56;;;;;;;4.00;1.42;;;17.20;99.90;;;;;;5007625;28;20034;-82
2023/07/29 05:57:22;;;;;;;3.05;1.60;;;17.10;99.90;;;;;;4991785;28;20386;-81
2023/07/29 05:59:48;;;;;;;2.17;1.00;;;17.20;99.90;;;;;;5006512;28;20033;-85
2023/07/29 06:02:14;;;;;;;3.55;1.02;;;17.20;99.90;;;;;;5009220;28;20117;-80
2023/07/29 06:04:39;;;;;;;2.92;1.20;;;17.30;99.90;;;;;;5003649;28;20184;-83
2023/07/29 06:07:07;;;;;;;3.78;1.40;;;17.30;99.90;;;;;;5007730;28;20072;-84
2023/07/29 06:09:35;;;;;;;3.42;2.03;;;17.30;99.90;;;;;;5001087;28;20479;-84
2023/07/29 06:12:00;;;;;;;4.72;1.45;;;17.30;99.90;;;;;;5006631;28;20076;-80
2023/07/29 06:14:26;;;;;;;2.30;1.20;;;17.30;99.90;;;;;;5005392;28;20080;-84
2023/07/29 06:16:52;;;;;;;2.58;1.58;;;17.40;99.90;;;;;;5005350;28;20022;-79
2023/07/29 06:19:19;;;;;;;4.63;1.75;;;17.30;99.90;;;;;;4989526;28;20482;-82
2023/07/29 06:21:45;;;;;;;2.38;1.13;;;17.30;99.90;;;;;;5006827;28;20084;-82
2023/07/29 06:24:11;;;;;;;5.28;1.10;;;17.40;99.90;;;;;;5022413;28;20025;-83
2023/07/29 06:26:36;;;;;;;3.83;1.38;;;17.40;99.90;;;;;;5005155;28;20038;-84
2023/07/29 06:29:02;;;;;;;4.57;1.90;;;17.50;99.90;;;;;;5007668;28;20022;-85
2023/07/29 06:31:28;;;;;;;3.97;1.33;;;17.50;99.90;;;;;;5003967;28;20679;-81
2023/07/29 06:33:54;;;;;;;3.15;0.98;;;17.60;99.90;;;;;;5005853;28;20036;-84
2023/07/29 06:36:20;;;;;;;2.45;0.65;;;17.60;99.90;;;;;;5004175;28;20026;-85
2023/07/29 06:38:46;;;;;;;2.08;1.08;;;17.60;99.90;;;;;;4987656;28;20092;-84
2023/07/29 06:41:12;;;;;;;3.10;0.90;;;17.70;99.90;;;;;;5002391;28;20034;-84
2023/07/29 06:43:37;;;;;;;2.38;0.80;;;18.10;99.90;;;;;;5005716;28;20113;-83
2023/07/29 06:46:03;;;;;;;2.67;0.90;;;18.50;99.90;;;;;;5003831;28;20034;-83
2023/07/29 06:48:29;;;;;;;3.78;1.10;;;18.60;99.90;;;;;;5007162;28;20064;-87
2023/07/29 06:50:55;;;;;;;3.03;1.05;;;18.60;99.90;;;;;;5004111;28;20042;-80
2023/07/29 06:53:21;;;;;;;2.33;0.80;;;18.40;99.90;;;;;;4990893;28;20037;-84
2023/07/29 06:55:47;;;;;;;3.00;1.00;;;18.40;99.90;;;;;;5005767;28;20034;-83
2023/07/29 06:58:12;;;;;;;1.38;0.60;;;18.40;99.90;;;;;;5021263;28;20140;-83
2023/07/29 07:00:38;;;;;;;2.45;0.90;;;18.60;99.90;;;;;;5002850;28;20026;-82
2023/07/29 07:03:04;;;;;;;2.10;0.60;;;18.90;99.90;;;;;;5005467;28;20133;-83
2023/07/29 07:05:30;;;;;;;1.30;0.60;;;19.00;99.90;;;;;;5019767;28;20124;-84
2023/07/29 07:07:55;;;;;;;1.58;0.50;;;19.00;99.90;;;;;;5000487;28;20026;-82
2023/07/29 07:10:21;;;;;;;2.70;1.33;;;19.10;99.90;;;;;;5006808;28;20113;-83
2023/07/29 07:12:47;;;;;;;2.50;1.05;;;19.00;99.90;;;;;;5001450;28;20544;-80
2023/07/29 07:15:13;;;;;;;4.32;1.70;;;19.00;99.90;;;;;;5017317;28;20080;-84
2023/07/29 07:17:38;;;;;;;4.18;1.95;;;19.00;99.90;;;;;;5005798;28;20022;-81
2023/07/29 07:20:05;;;;;;;2.97;1.50;;;18.80;99.90;;;;;;5005999;28;20034;-82
2023/07/29 07:22:31;;;;;;;3.38;1.35;;;18.70;99.90;;;;;;5017805;28;20030;-83
2023/07/29 07:24:56;;;;;;;3.20;1.63;;;19.20;99.90;;;;;;5005837;28;20118;-83
2023/07/29 07:27:23;;;;;;;3.53;1.33;;;19.10;99.90;;;;;;5012525;28;20450;-82
2023/07/29 07:29:48;;;;;;;3.72;1.83;;;19.30;99.90;;;;;;5019059;28;20025;-82
2023/07/29 07:32:14;;;;;;;2.45;1.38;;;19.00;99.90;;;;;;5004796;28;20044;-83
2023/07/29 07:34:40;;;;;;;3.17;1.50;;;19.70;99.90;;;;;;4986976;28;20026;-83
2023/07/29 07:37:06;;;;;;;4.63;1.75;;;19.90;99.90;;;;;;4990166;28;20026;-81
2023/07/29 07:39:32;;;;;;;2.90;1.40;;;19.60;99.90;;;;;;5004571;28;20099;-81
2023/07/29 07:41:58;;;;;;;2.58;1.33;;;19.80;99.90;;;;;;5015735;28;20036;-81
2023/07/29 07:44:26;;;;;;;3.35;1.38;;;19.90;99.90;;;;;;5001526;28;20060;-81
2023/07/29 07:46:52;;;;;;;3.03;1.75;;;20.00;99.90;;;;;;4986275;28;20030;-81
2023/07/29 07:49:18;;;;;;;2.45;0.90;;;19.70;99.90;;;;;;5017428;28;20030;-81
2023/07/29 07:51:44;;;;;;;4.00;1.80;;;19.70;99.90;;;;;;4989112;28;20136;-80
2023/07/29 07:54:09;;;;;;;2.42;1.35;;;19.50;99.90;;;;;;5017788;28;20034;-83
2023/07/29 07:56:35;;;;;;;3.65;1.83;;;19.40;99.90;;;;;;4987710;28;20037;-81
2023/07/29 07:59:01;;;;;;;4.32;2.47;;;19.40;99.90;;;;;;5002014;28;20029;-82
2023/07/29 08:01:26;;;;;;;4.15;2.08;;;19.20;99.90;;;;;;5003914;28;20021;-83
2023/07/29 08:03:52;;;;;;;3.47;1.23;;;19.40;99.90;;;;;;5001301;28;20077;-82
2023/07/29 08:06:18;;;;;;;1.73;0.85;;;20.00;99.90;;;;;;5004758;28;20077;-81
2023/07/29 08:08:43;;;;;;;2.30;1.50;;;20.60;99.90;;;;;;5002180;28;20034;-83
2023/07/29 08:11:09;;;;;;;3.17;1.13;;;20.60;99.90;;;;;;5001836;28;20048;-82
2023/07/29 08:13:35;;;;;;;3.22;1.20;;;20.50;99.90;;;;;;4989307;28;20105;-81
2023/07/29 08:16:01;;;;;;;4.90;2.17;;;20.30;99.90;;;;;;4987832;28;20038;-83
2023/07/29 08:18:26;;;;;;;4.28;1.88;;;19.70;99.90;;;;;;5003287;28;20029;-81
2023/07/29 08:21:02;;;;;;;2.92;1.55;;;19.60;99.90;;;;;;5005501;28;20131;-81
2023/07/29 08:23:32;;;;;;;1.30;0.60;;;19.70;99.90;;;;;;5004402;28;20034;-82
2023/07/29 08:26:01;;;;;;;2.38;1.33;;;20.00;99.90;;;;;;5003610;28;20038;-81
2023/07/29 08:28:31;;;;;;;4.78;1.88;;;19.70;99.90;;;;;;5000165;28;20059;-80
2023/07/29 08:30:57;;;;;;;3.92;2.17;;;19.50;99.90;;;;;;5000741;28;20073;-82
2023/07/29 08:33:23;;;;;;;2.65;1.65;;;19.40;99.90;;;;;;5000106;28;20051;-82
2023/07/29 08:35:48;;;;;;;4.00;0.90;;;19.40;99.90;;;;;;5004091;28;20108;-82
2023/07/29 08:38:14;;;;;;;1.88;1.30;;;19.50;99.90;;;;;;5003161;28;20105;-81
2023/07/29 08:41:05;;;;;;;2.67;1.52;;;19.40;99.90;;;;;;5002618;28;20054;-81
2023/07/29 08:43:32;;;;;;;3.38;1.48;;;19.20;99.90;;;;;;5004047;28;20117;-83
2023/07/29 08:46:01;;;;;;;2.58;1.20;;;19.10;99.90;;;;;;4988088;28;20538;-79
2023/07/29 08:48:41;;;;;;;2.22;0.95;;;19.30;99.90;;;;;;5003389;28;20023;-81
2023/07/29 08:51:10;;;;;;;;;;;19.50;99.90;;;;;;5006618;28;20113;-83
2023/07/29 08:53:37;;;;;;;3.67;1.00;;;19.50;99.90;;;;;;5005946;28;20389;-84
2023/07/29 08:56:04;;;;;;;1.88;1.20;;;19.60;99.90;;;;;;5009684;28;20398;-81
2023/07/29 08:58:31;;;;;;;2.55;0.70;;;19.70;99.90;;;;;;5005106;28;20038;-79
2023/07/29 09:00:57;;;;;;;2.30;0.60;;;19.90;99.90;;;;;;5005532;28;20022;-82
2023/07/29 09:03:22;;;;;;;1.35;0.60;;;20.10;99.90;;;;;;5008064;28;20383;-84
2023/07/29 09:05:48;;;;;;;1.42;0.60;;;19.90;99.90;;;;;;4989269;28;20034;-83
2023/07/29 09:08:14;;;;;;;4.10;0.73;;;19.90;99.90;;;;;;4987700;28;20056;-82
2023/07/29 09:10:40;;;;;;;1.90;0.60;;;20.10;99.90;;;;;;5003537;28;20129;-83
2023/07/29 09:13:07;;;;;;;1.10;0.50;;;20.20;99.90;;;;;;5005444;28;20101;-84
2023/07/29 09:15:34;;;;;;;1.17;0.60;;;20.80;99.90;;;;;;5005763;28;20022;-83
2023/07/29 09:18:15;;;;;;;1.70;0.50;;;21.10;99.90;;;;;;4993597;28;20052;-86
2023/07/29 09:20:41;;;;;;;1.50;0.60;;;20.70;99.90;;;;;;5002870;28;20031;-83
2023/07/29 09:23:10;;;;;;;2.40;0.52;;;20.70;99.90;;;;;;4988445;28;20033;-77
2023/07/29 09:25:36;;;;;;;2.55;0.50;;;20.40;99.90;;;;;;5008209;28;20053;-83
2023/07/29 09:28:11;;;;;;;0.88;0.40;;;20.60;99.90;;;;;;5004819;28;20049;-81
2023/07/29 09:30:42;;;;;;;1.05;0.40;;;20.90;99.90;;;;;;5020098;28;20171;-84
2023/07/29 09:33:08;;;;;;;0.80;0.40;;;20.80;99.90;;;;;;5022967;28;20487;-81
2023/07/29 09:35:35;;;;;;;1.63;0.40;;;20.50;99.90;;;;;;4991581;28;20117;-83
2023/07/29 09:38:06;;;;;;;1.40;0.50;;;20.50;99.90;;;;;;5023585;28;20026;-82
2023/07/29 09:40:40;;;;;;;2.08;0.40;;;20.60;99.90;;;;;;4999651;28;20033;-85
2023/07/29 09:43:07;;;;;;;1.10;0.20;;;20.50;99.90;;;;;;5003871;28;20172;-85
2023/07/29 09:45:35;;;;;;;1.35;0.30;;;20.60;99.90;;;;;;5005596;28;20515;-85
2023/07/29 09:48:01;;;;;;;0.60;0.20;;;20.70;99.90;;;;;;5021181;28;20462;-85
2023/07/29 09:50:27;;;;;;;1.10;0.20;;;20.90;99.90;;;;;;5002929;28;20026;-84
2023/07/29 09:52:58;;;;;;;0.60;0.30;;;21.30;99.90;;;;;;5005352;28;20332;-84
2023/07/29 09:55:25;;;;;;;1.98;0.40;;;21.80;99.90;;;;;;5005054;28;20023;-84
2023/07/29 09:58:04;;;;;;;2.13;0.40;;;21.90;99.90;;;;;;5008661;28;20030;-80
2023/07/29 10:00:30;;;;;;;0.90;0.38;;;22.00;99.90;;;;;;5004143;28;20525;-84
2023/07/29 10:02:57;;;;;;;1.70;0.40;;;22.70;99.90;;;;;;5008616;28;20050;-84
2023/07/29 10:05:25;;;;;;;0.70;0.30;;;22.90;99.90;;;;;;5003407;28;20042;-83
2023/07/29 10:07:51;;;;;;;0.80;0.30;;;22.40;99.90;;;;;;5004358;28;20025;-85
2023/07/29 10:10:17;;;;;;;1.17;0.43;;;22.00;99.90;;;;;;5007577;28;20027;-85
2023/07/29 10:12:44;;;;;;;1.10;0.50;;;21.40;99.90;;;;;;5007342;28;20089;-85
2023/07/29 10:15:10;;;;;;;1.20;0.43;;;20.90;99.90;;;;;;5007139;28;20058;-83
2023/07/29 10:17:37;;;;;;;1.23;0.50;;;20.80;99.90;;;;;;5006435;28;20057;-81
2023/07/29 10:20:05;;;;;;;1.02;0.40;;;21.10;99.90;;;;;;5004141;28;20029;-82
2023/07/29 10:22:37;;;;;;;2.80;0.40;;;21.30;99.90;;;;;;5004692;28;20034;-82
2023/07/29 10:25:07;;;;;;;1.17;0.60;;;21.40;99.90;;;;;;5004064;28;20096;-84
2023/07/29 10:27:47;;;;;;;1.35;0.50;;;21.30;99.90;;;;;;4997223;28;20034;-84
2023/07/29 10:30:13;;;;;;;;;;;21.10;99.90;;;;;;5004777;28;20065;-85
2023/07/29 10:32:43;;;;;;;1.23;0.60;;;20.90;99.90;;;;;;5005761;28;19925;-81
2023/07/29 10:35:09;;;;;;;2.80;0.60;;;20.90;99.90;;;;;;5018544;28;20474;-82
2023/07/29 10:37:35;;;;;;;2.15;0.70;;;21.00;99.90;;;;;;5004649;28;20022;-86
2023/07/29 10:40:05;;;;;;;1.67;0.60;;;20.80;99.90;;;;;;5021717;28;20140;-84
2023/07/29 10:42:31;;;;;;;1.88;0.50;;;20.90;99.90;;;;;;5002272;28;20053;-81
2023/07/29 10:44:56;;;;;;;3.45;0.77;;;21.50;99.90;;;;;;4986410;28;20525;-84
2023/07/29 10:47:27;;;;;;;2.58;0.68;;;21.40;99.90;;;;;;5002095;28;20045;-83
2023/07/29 10:49:56;;;;;;;1.80;0.82;;;21.60;99.90;;;;;;5001846;28;20118;-83
2023/07/29 10:52:49;;;;;;;1.40;0.60;;;21.60;99.90;;;;;;5001150;28;20036;-83
2023/07/29 10:55:31;;;;;;;1.60;0.70;;;21.70;99.90;;;;;;5002980;28;20458;-83
2023/07/29 10:58:17;;;;;;;1.15;0.60;;;21.70;99.90;;;;;;5005491;28;20682;-81
2023/07/29 11:00:46;;;;;;;1.00;0.60;;;21.60;99.90;;;;;;5018977;28;20043;-82
2023/07/29 11:03:16;;;;;;;0.82;0.43;;;21.60;99.90;;;;;;5001298;28;20037;-85
2023/07/29 11:05:42;;;;;;;1.50;0.40;;;21.60;99.90;;;;;;5004453;28;20092;-84
2023/07/29 11:08:28;;;;;;;1.05;0.45;;;21.90;99.90;;;;;;4990631;28;20572;-85
2023/07/29 11:11:04;;;;;;;1.63;0.50;;;21.80;99.90;;;;;;5019686;28;20113;-85
2023/07/29 11:13:31;;;;;;;1.38;0.43;;;21.60;99.90;;;;;;5005937;28;20026;-84
2023/07/29 11:16:01;;;;;;;1.20;0.40;;;21.80;99.90;;;;;;5021322;28;20425;-82
2023/07/29 11:18:31;;;;;;;;;;;21.60;99.90;;;;;;4986701;28;20034;-85
2023/07/29 11:20:58;;;;;;;1.35;0.40;;;21.60;99.90;;;;;;4987352;28;20043;-85
2023/07/29 11:23:29;;;;;;;1.38;0.50;;;21.70;99.90;;;;;;5006706;28;20026;-87
2023/07/29 11:25:55;;;;;;;1.40;0.30;;;21.80;99.90;;;;;;5001316;28;20046;-84
2023/07/29 11:28:21;;;;;;;1.25;0.30;;;22.10;99.90;;;;;;4985847;28;20036;-81
2023/07/29 11:30:49;;;;;;;1.00;0.40;;;22.50;99.90;;;;;;4987723;28;20088;-85
2023/07/29 11:33:18;;;;;;;0.63;0.20;;;22.30;99.90;;;;;;5005345;28;20123;-84
2023/07/29 11:35:43;;;;;;;0.47;0.20;;;22.80;99.90;;;;;;4985454;28;20041;-84
2023/07/29 11:38:19;;;;;;;0.73;0.30;;;23.10;99.90;;;;;;5005019;28;20386;-84
2023/07/29 11:40:55;;;;;;;1.02;0.30;;;22.40;99.90;;;;;;5018395;28;20037;-84
2023/07/29 11:43:20;;;;;;;0.80;0.30;;;22.80;99.90;;;;;;5000531;28;20036;-81
2023/07/29 11:45:46;;;;;;;0.88;0.30;;;22.80;99.90;;;;;;5001359;28;20042;-82
2023/07/29 11:48:12;;;;;;;0.75;0.30;;;22.70;99.90;;;;;;5000341;28;20034;-84
2023/07/29 11:50:37;;;;;;;0.88;0.22;;;22.30;99.90;;;;;;4988739;28;20041;-81
2023/07/29 11:53:03;;;;;;;1.23;0.30;;;22.10;99.90;;;;;;5002213;28;20113;-85
2023/07/29 11:55:29;;;;;;;2.45;0.25;;;22.00;99.90;;;;;;5014630;28;20294;-81
2023/07/29 11:57:55;;;;;;;0.90;0.20;;;22.00;99.90;;;;;;5012292;28;20025;-83
2023/07/29 12:00:21;;;;;;;0.98;0.30;;;22.30;99.90;;;;;;5016381;28;20080;-81
2023/07/29 12:02:49;;;;;;;0.80;0.25;;;22.20;99.90;;;;;;5003190;28;20070;-80
2023/07/29 12:05:15;;;;;;;1.15;0.28;;;21.80;99.90;;;;;;4986126;28;20489;-81
2023/07/29 12:07:43;;;;;;;0.82;0.20;;;21.50;99.90;;;;;;5004440;28;20509;-85
2023/07/29 12:10:10;;;;;;;1.42;0.30;;;21.20;99.90;;;;;;5006340;28;20038;-79
2023/07/29 12:12:46;;;;;;;2.25;0.50;;;20.80;99.90;;;;;;4998779;28;20100;-88
2023/07/29 12:15:12;;;;;;;3.50;0.40;;;20.20;99.90;;;;;;5000371;28;20038;-89
2023/07/29 12:17:42;;;;;;;2.70;0.52;;;19.40;99.90;;;;;;5013199;28;20037;-84
2023/07/29 12:20:10;;;;;;;1.48;0.50;;;19.00;99.90;;;;;;5000197;28;20026;-83
2023/07/29 12:22:36;;;;;;;2.70;0.50;;;18.70;99.90;;;;;;5002322;28;20026;-82
2023/07/29 12:25:03;;;;;;;2.47;0.70;;;18.60;99.90;;;;;;5001228;28;20104;-82
2023/07/29 12:27:31;;;;;;;1.35;0.50;;;18.50;99.90;;;;;;5015543;28;20030;-82
2023/07/29 12:29:58;;;;;;;2.42;0.50;;;18.60;99.90;;;;;;5003587;28;20022;-88
2023/07/29 12:32:26;;;;;;;2.17;0.50;;;18.30;99.90;;;;;;4983353;28;20442;-85
2023/07/29 12:34:53;;;;;;;1.95;0.30;;;18.00;99.90;;;;;;5004321;28;20058;-83
2023/07/29 12:37:19;;;;;;;0.80;0.30;;;17.90;99.90;;;;;;5002775;28;20148;-83
2023/07/29 12:39:45;;;;;;;0.90;0.20;;;17.90;99.90;;;;;;5015805;28;20152;-83
2023/07/29 12:42:11;;;;;;;1.63;0.20;;;18.00;99.90;;;;;;5001736;28;20026;-83
2023/07/29 12:44:38;;;;;;;1.33;0.30;;;17.90;99.90;;;;;;5000186;28;20041;-81
2023/07/29 12:47:06;;;;;;;1.10;0.20;;;17.80;99.90;;;;;;5019258;28;20026;-82
2023/07/29 12:49:32;;;;;;;1.33;0.20;;;17.90;99.90;;;;;;5001662;28;20032;-82